createdAt,value
2022-09-28T00:01:00.965Z,2.28
2022-09-28T00:03:29.151Z,2.67
2022-09-28T00:06:02.428Z,2.08
2022-09-28T00:08:32.357Z,2.20
2022-09-28T00:11:00.407Z,2.08
2022-09-28T00:13:29.449Z,2.80
2022-09-28T00:16:01.854Z,3.28
2022-09-28T00:18:30.114Z,2.63
2022-09-28T00:21:02.698Z,2.50
2022-09-28T00:23:32.335Z,2.47
2022-09-28T00:26:03.746Z,2.38
2022-09-28T00:28:32.048Z,2.22
2022-09-28T00:31:00.322Z,4.85
2022-09-28T00:33:29.568Z,2.55
2022-09-28T00:35:58.739Z,2.50
2022-09-28T00:38:31.382Z,2.55
2022-09-28T00:40:59.603Z,2.45
2022-09-28T00:43:28.020Z,2.45
2022-09-28T00:46:00.164Z,2.30
2022-09-28T00:48:31.410Z,2.17
2022-09-28T00:51:02.109Z,2.80
2022-09-28T00:53:34.810Z,3.88
2022-09-28T00:56:07.376Z,2.63
2022-09-28T00:58:44.322Z,2.65
2022-09-28T01:01:12.910Z,2.53
2022-09-28T01:03:45.229Z,2.50
2022-09-28T01:06:18.897Z,2.60
2022-09-28T01:08:51.486Z,2.25
2022-09-28T01:11:20.440Z,2.30
2022-09-28T01:13:51.238Z,2.15
2022-09-28T01:16:28.469Z,2.28
2022-09-28T01:19:07.976Z,3.15
2022-09-28T01:21:46.545Z,2.33
2022-09-28T01:24:33.469Z,2.47
2022-09-28T01:27:11.418Z,2.40
2022-09-28T01:29:50.261Z,2.58
2022-09-28T01:32:28.819Z,2.85
2022-09-28T01:35:02.014Z,2.72
2022-09-28T01:37:36.712Z,2.50
2022-09-28T01:40:08.098Z,2.42
2022-09-28T01:42:40.541Z,2.55
2022-09-28T01:45:15.462Z,2.97
2022-09-28T01:47:46.134Z,2.50
2022-09-28T01:50:17.664Z,2.60
2022-09-28T01:52:50.989Z,2.83
2022-09-28T01:55:27.553Z,3.35
2022-09-28T01:58:01.315Z,2.90
2022-09-28T02:00:29.838Z,3.22
2022-09-28T02:03:02.992Z,3.08
2022-09-28T02:05:49.902Z,2.35
2022-09-28T02:08:25.362Z,3.08
2022-09-28T02:10:58.717Z,3.30
2022-09-28T02:13:32.561Z,3.17
2022-09-28T02:16:06.053Z,3.90
2022-09-28T02:18:34.612Z,3.13
2022-09-28T02:21:10.049Z,3.30
2022-09-28T02:23:42.653Z,2.97
2022-09-28T02:26:14.913Z,3.22
2022-09-28T02:28:44.479Z,2.97
2022-09-28T02:31:12.637Z,3.17
2022-09-28T02:33:45.113Z,3.50
2022-09-28T02:36:13.833Z,3.50
2022-09-28T02:38:41.866Z,3.50
2022-09-28T02:41:19.333Z,3.42
2022-09-28T02:44:01.417Z,3.50
2022-09-28T02:46:40.429Z,4.22
2022-09-28T02:49:27.956Z,3.55
2022-09-28T02:52:11.494Z,3.75
2022-09-28T02:55:08.592Z,3.50
2022-09-28T02:57:48.162Z,3.50
2022-09-28T03:00:20.655Z,4.15
2022-09-28T03:03:02.372Z,4.15
2022-09-28T03:05:41.025Z,4.40
2022-09-28T03:08:17.089Z,3.88
2022-09-28T03:10:50.653Z,4.97
2022-09-28T03:13:19.601Z,3.88
2022-09-28T03:15:49.210Z,4.68
2022-09-28T03:18:18.677Z,4.82
2022-09-28T03:20:47.443Z,5.32
2022-09-28T03:23:30.714Z,5.22
2022-09-28T03:25:58.829Z,5.55
2022-09-28T03:28:27.938Z,5.80
2022-09-28T03:30:57.876Z,5.47
2022-09-28T03:33:25.879Z,5.28
2022-09-28T03:35:54.586Z,5.78
2022-09-28T03:38:23.012Z,5.80
2022-09-28T03:40:54.842Z,4.63
2022-09-28T03:43:23.516Z,5.88
2022-09-28T03:45:54.425Z,5.97
2022-09-28T03:48:31.920Z,6.30
2022-09-28T03:51:03.005Z,5.53
2022-09-28T03:53:31.302Z,6.68
2022-09-28T03:56:04.353Z,6.05
2022-09-28T03:58:33.252Z,5.78
2022-09-28T04:01:05.809Z,6.72
2022-09-28T04:03:35.898Z,7.03
2022-09-28T04:06:04.125Z,6.25
2022-09-28T04:08:32.411Z,6.35
2022-09-28T04:11:01.493Z,8.00
2022-09-28T04:13:31.484Z,7.82
2022-09-28T04:16:02.025Z,7.78
2022-09-28T04:18:35.166Z,6.05
2022-09-28T04:21:14.277Z,7.20
2022-09-28T04:23:48.978Z,7.35
2022-09-28T04:26:19.613Z,6.93
2022-09-28T04:29:07.203Z,6.82
2022-09-28T04:31:40.243Z,7.80
2022-09-28T04:34:10.037Z,7.72
2022-09-28T04:36:38.248Z,8.02
2022-09-28T04:39:06.422Z,8.68
2022-09-28T04:41:35.143Z,9.25
2022-09-28T04:44:04.273Z,9.77
2022-09-28T04:46:32.351Z,8.85
2022-09-28T04:49:20.279Z,8.90
2022-09-28T04:51:54.427Z,10.25
2022-09-28T04:54:22.503Z,9.75
2022-09-28T04:56:52.507Z,9.07
2022-09-28T04:59:20.974Z,9.18
2022-09-28T05:01:49.441Z,8.63
2022-09-28T05:04:31.449Z,9.05
2022-09-28T05:07:10.744Z,8.52
2022-09-28T05:09:39.428Z,8.50
2022-09-28T05:12:07.510Z,10.02
2022-09-28T05:14:35.664Z,9.40
2022-09-28T05:17:05.123Z,10.15
2022-09-28T05:19:50.045Z,9.23
2022-09-28T05:22:18.056Z,7.93
2022-09-28T05:24:47.744Z,8.82
2022-09-28T05:27:16.199Z,8.30
2022-09-28T05:29:47.888Z,8.88
2022-09-28T05:32:25.100Z,8.95
2022-09-28T05:35:08.921Z,8.25
2022-09-28T05:37:43.430Z,9.52
2022-09-28T05:40:12.341Z,10.10
2022-09-28T05:42:40.898Z,9.13
2022-09-28T05:45:10.306Z,9.90
2022-09-28T05:47:41.729Z,10.13
2022-09-28T05:50:15.694Z,9.90
2022-09-28T05:52:44.817Z,9.40
2022-09-28T05:55:14.499Z,11.20
2022-09-28T05:57:43.329Z,10.25
2022-09-28T06:00:12.817Z,9.30
2022-09-28T06:02:42.371Z,8.98
2022-09-28T06:05:14.471Z,10.85
2022-09-28T06:07:42.743Z,9.20
2022-09-28T06:10:11.494Z,9.60
2022-09-28T06:12:43.514Z,9.65
2022-09-28T06:15:17.803Z,8.68
2022-09-28T06:17:47.356Z,9.02
2022-09-28T06:20:39.645Z,8.90
2022-09-28T06:23:11.309Z,7.78
2022-09-28T06:25:39.584Z,7.45
2022-09-28T06:28:10.226Z,8.10
2022-09-28T06:30:39.174Z,7.43
2022-09-28T06:33:13.497Z,7.70
2022-09-28T06:35:43.835Z,6.53
2022-09-28T06:38:12.700Z,6.50
2022-09-28T06:40:40.821Z,6.40
2022-09-28T06:43:12.131Z,7.03
2022-09-28T06:46:15.630Z,5.82
2022-09-28T06:48:44.247Z,6.47
2022-09-28T06:51:20.901Z,5.85
2022-09-28T06:53:57.055Z,5.50
2022-09-28T06:56:54.411Z,5.40
2022-09-28T06:59:22.528Z,5.28
2022-09-28T07:01:50.846Z,4.18
2022-09-28T07:04:42.980Z,4.82
2022-09-28T07:07:15.133Z,4.78
2022-09-28T07:10:22.071Z,5.43
2022-09-28T07:13:14.614Z,5.50
2022-09-28T07:15:55.870Z,4.65
2022-09-28T07:18:24.328Z,5.20
2022-09-28T07:20:54.663Z,5.07
2022-09-28T07:23:26.206Z,4.68
2022-09-28T07:26:12.535Z,4.45
2022-09-28T07:28:59.387Z,5.90
2022-09-28T07:31:48.468Z,5.00
2022-09-28T07:34:39.856Z,6.30
2022-09-28T07:37:13.614Z,5.03
2022-09-28T07:40:00.799Z,5.15
2022-09-28T07:42:30.955Z,6.45
2022-09-28T07:44:59.543Z,6.30
2022-09-28T07:47:33.924Z,6.88
2022-09-28T07:50:32.838Z,6.57
2022-09-28T07:53:22.305Z,6.85
2022-09-28T07:56:07.200Z,7.38
2022-09-28T07:58:43.047Z,6.95
2022-09-28T08:01:40.131Z,7.88
2022-09-28T08:04:10.779Z,9.77
2022-09-28T08:06:40.577Z,9.23
2022-09-28T08:09:10.579Z,8.70
2022-09-28T08:12:00.579Z,7.90
2022-09-28T08:15:00.073Z,7.60
2022-09-28T08:17:48.441Z,7.85
2022-09-28T08:20:36.050Z,7.57
2022-09-28T08:23:04.870Z,6.00
2022-09-28T08:25:34.350Z,6.70
2022-09-28T08:28:07.151Z,6.53
2022-09-28T08:30:39.082Z,5.63
2022-09-28T08:33:39.429Z,5.80
2022-09-28T08:36:45.665Z,6.78
2022-09-28T08:39:34.395Z,6.25
2022-09-28T08:42:35.642Z,6.57
2022-09-28T08:45:29.848Z,7.00
2022-09-28T08:48:29.047Z,6.68
2022-09-28T08:51:20.034Z,5.05
2022-09-28T08:54:25.622Z,6.28
2022-09-28T08:56:59.424Z,4.93
2022-09-28T08:59:32.491Z,5.93
2022-09-28T09:02:16.504Z,5.68
2022-09-28T09:04:44.825Z,4.70
2022-09-28T09:07:41.926Z,5.60
2022-09-28T09:10:28.573Z,5.90
2022-09-28T09:13:07.313Z,4.55
2022-09-28T09:15:48.727Z,4.45
2022-09-28T09:18:36.877Z,4.88
2022-09-28T09:21:39.630Z,5.55
2022-09-28T09:24:30.453Z,4.82
2022-09-28T09:27:14.032Z,4.65
2022-09-28T09:30:01.172Z,3.95
2022-09-28T09:32:44.363Z,3.72
2022-09-28T09:35:31.102Z,4.10
2022-09-28T09:38:46.369Z,4.68
2022-09-28T09:41:51.566Z,4.03
2022-09-28T09:45:14.470Z,3.58
2022-09-28T09:48:05.503Z,4.18
2022-09-28T09:50:41.319Z,3.92
2022-09-28T09:53:17.267Z,3.70
2022-09-28T09:55:47.987Z,3.88
2022-09-28T09:58:40.341Z,3.63
2022-09-28T10:01:28.084Z,3.80
2022-09-28T10:04:31.892Z,4.90
2022-09-28T10:07:07.638Z,3.17
2022-09-28T10:09:42.164Z,3.00
2022-09-28T10:12:27.425Z,3.53
2022-09-28T10:14:56.530Z,3.50
2022-09-28T10:17:28.591Z,3.70
2022-09-28T10:20:35.598Z,3.28
2022-09-28T10:23:23.441Z,3.47
2022-09-28T10:25:55.024Z,4.15
2022-09-28T10:28:30.244Z,3.35
2022-09-28T10:30:58.532Z,3.05
2022-09-28T10:33:31.942Z,3.78
2022-09-28T10:36:01.232Z,2.80
2022-09-28T10:38:31.821Z,3.08
2022-09-28T10:41:16.570Z,3.78
2022-09-28T10:44:07.078Z,3.45
2022-09-28T10:46:57.910Z,3.10
2022-09-28T10:49:27.021Z,3.50
2022-09-28T10:51:58.698Z,3.75
2022-09-28T10:54:53.182Z,3.60
2022-09-28T10:57:29.365Z,3.17
2022-09-28T11:00:06.939Z,3.38
2022-09-28T11:02:58.144Z,3.40
2022-09-28T11:05:28.639Z,3.58
2022-09-28T11:08:00.819Z,3.50
2022-09-28T11:10:37.238Z,2.60
2022-09-28T11:13:15.868Z,2.53
2022-09-28T11:15:51.137Z,2.70
2022-09-28T11:18:31.461Z,2.85
2022-09-28T11:21:12.678Z,2.72
2022-09-28T11:23:44.124Z,2.80
2022-09-28T11:26:22.912Z,2.58
2022-09-28T11:28:53.486Z,2.42
2022-09-28T11:31:32.434Z,3.00
2022-09-28T11:34:15.924Z,2.72
2022-09-28T11:37:16.357Z,2.40
2022-09-28T11:39:54.287Z,3.20
2022-09-28T11:42:36.374Z,3.40
2022-09-28T11:45:24.710Z,3.20
2022-09-28T11:47:59.086Z,3.55
2022-09-28T11:50:40.408Z,3.20
2022-09-28T11:53:19.660Z,2.83
2022-09-28T11:55:55.709Z,2.38
2022-09-28T11:58:30.503Z,2.70
2022-09-28T12:01:06.427Z,2.65
2022-09-28T12:04:07.754Z,3.08
2022-09-28T12:06:41.730Z,2.50
2022-09-28T12:09:19.770Z,2.50
2022-09-28T12:12:04.238Z,2.53
2022-09-28T12:14:47.933Z,2.75
2022-09-28T12:17:22.381Z,2.00
2022-09-28T12:19:55.576Z,2.00
2022-09-28T12:22:30.288Z,2.38
2022-09-28T12:24:59.284Z,1.73
2022-09-28T12:27:33.611Z,2.40
2022-09-28T12:30:06.507Z,2.13
2022-09-28T12:32:39.214Z,2.08
2022-09-28T12:35:13.573Z,2.13
2022-09-28T12:37:55.406Z,2.17
2022-09-28T12:40:37.477Z,2.40
2022-09-28T12:43:40.491Z,2.65
2022-09-28T12:46:30.293Z,2.40
2022-09-28T12:52:24.021Z,2.60
2022-09-28T12:55:20.725Z,3.10
2022-09-28T12:57:59.719Z,2.88
2022-09-28T13:00:35.525Z,3.05
2022-09-28T13:03:31.900Z,4.18
2022-09-28T13:06:15.005Z,4.82
2022-09-28T13:08:53.246Z,2.92
2022-09-28T13:11:31.800Z,3.67
2022-09-28T13:14:22.167Z,2.83
2022-09-28T13:17:00.495Z,3.80
2022-09-28T13:19:41.151Z,3.65
2022-09-28T13:22:22.011Z,3.13
2022-09-28T13:24:51.377Z,2.80
2022-09-28T13:27:26.734Z,2.38
2022-09-28T13:29:58.720Z,3.00
2022-09-28T13:32:31.486Z,3.20
2022-09-28T13:35:02.459Z,2.53
2022-09-28T13:37:30.803Z,2.63
2022-09-28T13:39:59.733Z,1.92
2022-09-28T13:42:55.625Z,2.15
2022-09-28T13:45:46.478Z,2.20
2022-09-28T13:48:17.096Z,2.30
2022-09-28T13:51:25.216Z,2.08
2022-09-28T13:54:11.063Z,2.28
2022-09-28T13:56:50.248Z,2.05
2022-09-28T13:59:24.688Z,2.22
2022-09-28T14:01:57.575Z,1.55
2022-09-28T14:04:53.391Z,1.80
2022-09-28T14:07:25.514Z,1.77
2022-09-28T14:10:17.093Z,1.98
2022-09-28T14:12:49.786Z,1.85
2022-09-28T14:15:54.621Z,1.60
2022-09-28T14:18:32.123Z,3.72
2022-09-28T14:21:18.797Z,1.85
2022-09-28T14:24:16.347Z,1.77
2022-09-28T14:27:20.159Z,1.45
2022-09-28T14:29:51.862Z,1.40
2022-09-28T14:32:25.496Z,1.73
2022-09-28T14:34:59.174Z,1.52
2022-09-28T14:37:47.306Z,1.70
2022-09-28T14:40:39.517Z,1.50
2022-09-28T14:43:27.200Z,1.50
2022-09-28T14:46:31.083Z,1.33
2022-09-28T14:49:03.346Z,1.30
2022-09-28T14:52:07.985Z,2.40
2022-09-28T14:54:59.353Z,1.95
2022-09-28T14:57:32.177Z,1.60
2022-09-28T15:00:01.636Z,1.60
2022-09-28T15:02:33.467Z,1.10
2022-09-28T15:05:11.874Z,1.00
2022-09-28T15:07:49.511Z,1.40
2022-09-28T15:10:32.095Z,1.20
2022-09-28T15:13:03.717Z,1.27
2022-09-28T15:15:34.761Z,1.35
2022-09-28T15:18:13.595Z,1.25
2022-09-28T15:20:43.570Z,1.25
2022-09-28T15:23:26.907Z,1.60
2022-09-28T15:25:56.082Z,1.30
2022-09-28T15:28:25.839Z,1.33
2022-09-28T15:31:00.440Z,1.15
2022-09-28T15:33:48.015Z,1.27
2022-09-28T15:36:21.117Z,1.30
2022-09-28T15:38:55.930Z,1.27
2022-09-28T15:41:25.492Z,1.23
2022-09-28T15:44:33.282Z,1.23
2022-09-28T15:47:16.535Z,2.17
2022-09-28T15:49:48.047Z,2.65
2022-09-28T15:52:29.675Z,1.30
2022-09-28T15:54:58.949Z,1.40
2022-09-28T15:57:33.895Z,1.45
2022-09-28T16:00:04.216Z,1.52
2022-09-28T16:02:39.976Z,1.45
2022-09-28T16:05:34.044Z,2.03
2022-09-28T16:08:04.252Z,1.70
2022-09-28T16:10:34.483Z,2.25
2022-09-28T16:13:15.521Z,1.75
2022-09-28T16:15:45.365Z,1.30
2022-09-28T16:18:20.604Z,1.60
2022-09-28T16:20:51.025Z,1.70
2022-09-28T16:23:24.043Z,1.80
2022-09-28T16:25:56.355Z,1.35
2022-09-28T16:28:48.724Z,1.50
2022-09-28T16:31:37.210Z,1.55
2022-09-28T16:34:20.692Z,2.30
2022-09-28T16:36:49.970Z,1.63
2022-09-28T16:39:20.524Z,1.55
2022-09-28T16:41:52.845Z,1.50
2022-09-28T16:44:25.767Z,1.80
2022-09-28T16:47:00.175Z,1.40
2022-09-28T16:49:28.524Z,2.00
2022-09-28T16:51:56.514Z,1.60
2022-09-28T16:54:43.900Z,2.20
2022-09-28T16:57:13.852Z,1.65
2022-09-28T16:59:42.216Z,2.33
2022-09-28T17:02:45.188Z,2.03
2022-09-28T17:05:10.159Z,1.88
2022-09-28T17:07:39.267Z,2.17
2022-09-28T17:10:18.282Z,1.73
2022-09-28T17:12:46.426Z,2.17
2022-09-28T17:15:20.290Z,2.47
2022-09-28T17:17:51.284Z,2.60
2022-09-28T17:20:22.801Z,4.55
2022-09-28T17:22:51.094Z,6.95
2022-09-28T17:25:19.430Z,7.57
2022-09-28T17:27:48.970Z,7.93
2022-09-28T17:30:20.252Z,5.43
2022-09-28T17:32:51.739Z,2.85
2022-09-28T17:35:25.040Z,7.47
2022-09-28T17:37:54.320Z,7.65
2022-09-28T17:40:24.500Z,3.38
2022-09-28T17:42:55.082Z,1.42
2022-09-28T17:45:24.158Z,1.23
2022-09-28T17:47:53.825Z,1.00
2022-09-28T17:50:24.662Z,1.13
2022-09-28T17:52:53.609Z,0.80
2022-09-28T17:55:22.806Z,0.60
2022-09-28T17:57:51.509Z,0.90
2022-09-28T18:00:19.901Z,1.52
2022-09-28T18:02:49.076Z,1.10
2022-09-28T18:05:19.587Z,1.10
2022-09-28T18:07:49.787Z,1.35
2022-09-28T18:10:19.573Z,1.05
2022-09-28T18:12:48.517Z,1.10
2022-09-28T18:15:20.104Z,1.20
2022-09-28T18:17:48.226Z,1.40
2022-09-28T18:20:17.719Z,1.02
2022-09-28T18:22:45.822Z,1.30
2022-09-28T18:25:14.042Z,1.48
2022-09-28T18:27:42.627Z,1.50
2022-09-28T18:30:11.452Z,2.47
2022-09-28T18:32:39.920Z,3.72
2022-09-28T18:35:11.145Z,3.10
2022-09-28T18:37:41.571Z,9.93
2022-09-28T18:40:12.724Z,6.20
2022-09-28T18:42:41.412Z,6.75
2022-09-28T18:45:11.798Z,5.72
2022-09-28T18:47:40.679Z,4.00
2022-09-28T18:50:09.753Z,3.60
2022-09-28T18:52:38.201Z,4.30
2022-09-28T18:55:08.841Z,4.28
2022-09-28T18:57:37.635Z,3.53
2022-09-28T19:00:09.356Z,3.88
2022-09-28T19:02:37.817Z,3.83
2022-09-28T19:05:07.150Z,4.30
2022-09-28T19:07:36.585Z,3.47
2022-09-28T19:10:05.507Z,3.50
2022-09-28T19:12:35.304Z,3.30
2022-09-28T19:15:03.591Z,2.63
2022-09-28T19:17:31.761Z,2.97
2022-09-28T19:19:59.919Z,2.60
2022-09-28T19:22:28.007Z,2.13
2022-09-28T19:24:56.940Z,4.40
2022-09-28T19:27:25.054Z,3.95
2022-09-28T19:29:54.536Z,2.65
2022-09-28T19:32:22.650Z,3.28
2022-09-28T19:34:50.856Z,2.17
2022-09-28T19:37:19.104Z,2.30
2022-09-28T19:39:47.287Z,2.45
2022-09-28T19:42:15.452Z,2.33
2022-09-28T19:44:43.922Z,2.50
2022-09-28T19:47:13.435Z,2.60
2022-09-28T19:49:41.872Z,2.75
2022-09-28T19:52:15.602Z,2.65
2022-09-28T19:54:45.991Z,2.58
2022-09-28T19:57:15.997Z,3.03
2022-09-28T19:59:44.310Z,3.05
2022-09-28T20:02:14.045Z,2.53
2022-09-28T20:04:42.095Z,2.63
2022-09-28T20:07:10.375Z,2.58
2022-09-28T20:09:38.364Z,3.05
2022-09-28T20:12:06.583Z,3.30
2022-09-28T20:14:39.439Z,3.13
2022-09-28T20:17:08.767Z,4.88
2022-09-28T20:19:38.339Z,4.72
2022-09-28T20:22:06.556Z,5.43
2022-09-28T20:24:34.659Z,5.97
2022-09-28T20:27:02.743Z,4.47
2022-09-28T20:29:33.375Z,5.93
2022-09-28T20:32:03.761Z,5.53
2022-09-28T20:34:36.502Z,5.22
2022-09-28T20:37:05.846Z,5.40
2022-09-28T20:39:34.393Z,4.68
2022-09-28T20:42:02.788Z,4.22
2022-09-28T20:44:31.215Z,4.28
2022-09-28T20:46:59.401Z,5.70
2022-09-28T20:49:28.082Z,6.32
2022-09-28T20:51:56.165Z,5.47
2022-09-28T20:54:25.592Z,5.32
2022-09-28T20:56:53.620Z,4.75
2022-09-28T20:59:24.191Z,5.18
2022-09-28T21:01:52.441Z,5.07
2022-09-28T21:04:20.667Z,4.50
2022-09-28T21:06:48.788Z,4.85
2022-09-28T21:09:16.781Z,4.88
2022-09-28T21:11:46.689Z,4.78
2022-09-28T21:14:15.070Z,4.97
2022-09-28T21:16:43.059Z,4.90
2022-09-28T21:19:11.051Z,4.25
2022-09-28T21:21:39.230Z,6.47
2022-09-28T21:24:07.811Z,7.95
2022-09-28T21:26:35.839Z,10.90
2022-09-28T21:29:07.365Z,9.32
2022-09-28T21:31:39.965Z,9.93
2022-09-28T21:34:08.363Z,10.23
2022-09-28T21:36:36.660Z,10.98
2022-09-28T21:39:09.525Z,5.40
2022-09-28T21:41:38.601Z,6.05
2022-09-28T21:44:08.494Z,5.38
2022-09-28T21:46:37.345Z,5.97
2022-09-28T21:49:07.650Z,7.22
2022-09-28T21:51:36.449Z,10.38
2022-09-28T21:54:04.770Z,7.70
2022-09-28T21:56:32.741Z,9.57
2022-09-28T21:59:01.260Z,15.18
2022-09-28T22:01:31.743Z,10.20
2022-09-28T22:03:59.969Z,7.30
2022-09-28T22:06:28.925Z,9.80
2022-09-28T22:08:57.687Z,10.85
2022-09-28T22:11:28.399Z,7.78
2022-09-28T22:13:58.101Z,7.32
2022-09-28T22:16:28.872Z,5.93
2022-09-28T22:18:58.833Z,9.75
2022-09-28T22:21:28.490Z,7.95
2022-09-28T22:24:00.863Z,9.80
2022-09-28T22:26:29.881Z,10.55
2022-09-28T22:28:59.441Z,10.35
2022-09-28T22:31:29.163Z,12.35
2022-09-28T22:33:58.803Z,10.50
2022-09-28T22:36:27.521Z,8.88
2022-09-28T22:38:56.466Z,8.48
2022-09-28T22:41:24.900Z,6.38
2022-09-28T22:43:54.761Z,8.25
2022-09-28T22:46:24.963Z,10.35
2022-09-28T22:48:54.733Z,11.20
2022-09-28T22:51:25.289Z,6.65
2022-09-28T22:53:53.651Z,5.00
2022-09-28T22:56:21.678Z,6.00
2022-09-28T22:58:49.660Z,7.00
2022-09-28T23:01:20.888Z,5.25
2022-09-28T23:03:49.561Z,5.95
2022-09-28T23:06:20.926Z,9.93
2022-09-28T23:08:51.745Z,9.15
2022-09-28T23:11:20.242Z,7.93
2022-09-28T23:13:50.687Z,6.03
2022-09-28T23:16:19.779Z,5.18
2022-09-28T23:18:49.072Z,6.00
2022-09-28T23:21:19.650Z,6.45
2022-09-28T23:23:54.458Z,6.00
2022-09-28T23:26:25.018Z,7.80
2022-09-28T23:28:54.175Z,7.50
2022-09-28T23:31:24.331Z,7.05
2022-09-28T23:33:52.684Z,6.80
2022-09-28T23:36:20.714Z,4.88
2022-09-28T23:38:48.765Z,6.32
2022-09-28T23:41:18.128Z,7.57
2022-09-28T23:43:46.518Z,9.38
2022-09-28T23:46:19.671Z,7.45
2022-09-28T23:48:48.716Z,9.20
2022-09-28T23:51:16.775Z,7.55
2022-09-28T23:53:44.812Z,6.20
2022-09-28T23:56:12.883Z,5.22
2022-09-28T23:58:42.220Z,8.77
